createdAt,value
2022-09-23T00:01:11.369Z,16.18
2022-09-23T00:03:42.870Z,16.08
2022-09-23T00:06:12.300Z,16.08
2022-09-23T00:08:39.727Z,16.06
2022-09-23T00:11:12.696Z,16.00
2022-09-23T00:13:42.322Z,16.07
2022-09-23T00:16:14.471Z,16.01
2022-09-23T00:18:42.483Z,16.01
2022-09-23T00:21:11.684Z,15.99
2022-09-23T00:23:40.549Z,16.00
2022-09-23T00:26:08.937Z,16.02
2022-09-23T00:28:36.118Z,16.03
2022-09-23T00:31:04.680Z,16.01
2022-09-23T00:33:31.396Z,15.98
2022-09-23T00:36:02.704Z,15.94
2022-09-23T00:38:29.421Z,16.02
2022-09-23T00:40:56.516Z,16.00
2022-09-23T00:43:39.275Z,15.98
2022-09-23T00:46:09.042Z,15.95
2022-09-23T00:48:39.094Z,15.90
2022-09-23T00:51:09.115Z,15.88
2022-09-23T00:53:36.103Z,15.82
2022-09-23T00:56:07.230Z,15.80
2022-09-23T00:58:37.733Z,15.73
2022-09-23T01:01:04.871Z,15.64
2022-09-23T01:03:31.809Z,15.69
2022-09-23T01:05:59.061Z,15.75
2022-09-23T01:08:27.683Z,15.67
2022-09-23T01:11:02.578Z,15.76
2022-09-23T01:13:55.760Z,15.79
2022-09-23T01:16:29.394Z,15.76
2022-09-23T01:19:08.457Z,15.79
2022-09-23T01:21:35.322Z,15.81
2022-09-23T01:24:26.354Z,15.80
2022-09-23T01:27:14.178Z,15.81
2022-09-23T01:30:11.100Z,15.81
2022-09-23T01:32:52.844Z,15.83
2022-09-23T01:35:25.715Z,15.76
2022-09-23T01:37:59.288Z,15.76
2022-09-23T01:40:54.002Z,15.76
2022-09-23T01:43:33.922Z,15.78
2022-09-23T01:46:08.056Z,15.77
2022-09-23T01:48:49.544Z,15.74
2022-09-23T01:51:25.833Z,15.67
2022-09-23T01:54:16.026Z,15.68
2022-09-23T01:56:51.895Z,15.69
2022-09-23T01:59:26.347Z,15.76
2022-09-23T02:02:03.585Z,15.75
2022-09-23T02:04:57.178Z,15.72
2022-09-23T02:07:37.416Z,15.61
2022-09-23T02:10:19.852Z,15.65
2022-09-23T02:12:52.203Z,15.65
2022-09-23T02:15:26.360Z,15.66
2022-09-23T02:18:09.942Z,15.63
2022-09-23T02:20:41.269Z,15.67
2022-09-23T02:23:50.349Z,15.67
2022-09-23T02:26:38.160Z,15.48
2022-09-23T02:29:29.386Z,15.47
2022-09-23T02:32:24.364Z,15.47
2022-09-23T02:35:05.669Z,15.52
2022-09-23T02:37:58.741Z,15.55
2022-09-23T02:40:36.383Z,15.50
2022-09-23T02:43:33.919Z,15.50
2022-09-23T02:46:00.802Z,15.54
2022-09-23T02:48:34.015Z,15.51
2022-09-23T02:51:03.572Z,15.47
2022-09-23T02:53:33.953Z,15.50
2022-09-23T02:56:01.655Z,15.53
2022-09-23T02:58:29.911Z,15.52
2022-09-23T03:01:06.135Z,15.54
2022-09-23T03:03:32.684Z,15.55
2022-09-23T03:06:06.446Z,15.54
2022-09-23T03:08:48.082Z,15.57
2022-09-23T03:11:17.026Z,15.52
2022-09-23T03:14:17.656Z,15.51
2022-09-23T03:16:53.652Z,15.53
2022-09-23T03:19:42.440Z,15.54
2022-09-23T03:22:14.057Z,15.53
2022-09-23T03:24:44.878Z,15.55
2022-09-23T03:27:16.229Z,15.49
2022-09-23T03:29:49.701Z,15.58
2022-09-23T03:32:20.006Z,15.54
2022-09-23T03:34:51.690Z,15.54
2022-09-23T03:37:26.286Z,15.54
2022-09-23T03:40:17.701Z,15.56
2022-09-23T03:42:44.340Z,15.53
2022-09-23T03:45:18.383Z,15.53
2022-09-23T03:47:45.395Z,15.48
2022-09-23T03:50:13.584Z,15.49
2022-09-23T03:52:40.711Z,15.50
2022-09-23T03:55:07.925Z,15.50
2022-09-23T03:57:35.156Z,15.47
2022-09-23T04:00:01.976Z,15.47
2022-09-23T04:02:38.575Z,15.49
2022-09-23T04:05:06.149Z,15.47
2022-09-23T04:07:32.701Z,15.45
2022-09-23T04:09:59.363Z,15.43
2022-09-23T04:12:25.911Z,15.31
2022-09-23T04:14:52.560Z,15.36
2022-09-23T04:17:19.238Z,15.33
2022-09-23T04:19:45.871Z,15.32
2022-09-23T04:22:12.569Z,15.32
2022-09-23T04:24:39.304Z,15.33
2022-09-23T04:27:06.227Z,15.41
2022-09-23T04:29:32.867Z,15.42
2022-09-23T04:31:59.542Z,15.42
2022-09-23T04:34:26.229Z,15.41
2022-09-23T04:36:52.841Z,15.32
2022-09-23T04:39:19.681Z,15.30
2022-09-23T04:41:46.591Z,15.29
2022-09-23T04:44:13.919Z,15.23
2022-09-23T04:46:47.276Z,15.17
2022-09-23T04:49:15.051Z,15.24
2022-09-23T04:51:43.431Z,15.18
2022-09-23T04:54:12.197Z,15.23
2022-09-23T04:56:39.745Z,15.22
2022-09-23T04:59:07.201Z,15.18
2022-09-23T05:01:35.112Z,15.15
2022-09-23T05:04:05.311Z,15.20
2022-09-23T05:06:34.544Z,15.14
2022-09-23T05:09:01.877Z,15.17
2022-09-23T05:11:30.302Z,15.15
2022-09-23T05:13:57.165Z,15.11
2022-09-23T05:16:24.675Z,15.04
2022-09-23T05:18:52.477Z,14.98
2022-09-23T05:21:21.954Z,15.00
2022-09-23T05:23:52.362Z,14.99
2022-09-23T05:26:19.019Z,15.03
2022-09-23T05:28:45.542Z,15.00
2022-09-23T05:31:20.235Z,15.03
2022-09-23T05:33:54.420Z,14.98
2022-09-23T05:36:22.086Z,15.00
2022-09-23T05:38:50.794Z,15.00
2022-09-23T05:41:18.840Z,14.98
2022-09-23T05:43:45.728Z,14.98
2022-09-23T05:46:17.985Z,14.95
2022-09-23T05:48:48.032Z,15.02
2022-09-23T05:51:17.210Z,15.08
2022-09-23T05:53:45.501Z,15.01
2022-09-23T05:56:17.057Z,15.04
2022-09-23T05:58:44.380Z,15.06
2022-09-23T06:01:21.877Z,15.04
2022-09-23T06:03:49.208Z,15.07
2022-09-23T06:06:20.491Z,15.03
2022-09-23T06:08:47.946Z,15.03
2022-09-23T06:11:15.062Z,14.99
2022-09-23T06:13:42.354Z,14.97
2022-09-23T06:16:12.306Z,14.92
2022-09-23T06:18:40.823Z,14.96
2022-09-23T06:21:08.843Z,15.01
2022-09-23T06:23:39.382Z,15.05
2022-09-23T06:26:09.648Z,14.93
2022-09-23T06:28:38.129Z,14.95
2022-09-23T06:31:13.334Z,14.92
2022-09-23T06:33:41.150Z,14.95
2022-09-23T06:36:08.409Z,14.85
2022-09-23T06:38:38.627Z,14.82
2022-09-23T06:41:05.225Z,14.90
2022-09-23T06:43:31.765Z,14.97
2022-09-23T06:46:00.567Z,15.04
2022-09-23T06:48:28.537Z,15.11
2022-09-23T06:50:59.295Z,15.07
2022-09-23T06:53:25.944Z,15.14
2022-09-23T06:56:06.510Z,15.07
2022-09-23T06:58:34.808Z,15.09
2022-09-23T07:01:08.549Z,15.11
2022-09-23T07:03:36.126Z,15.11
2022-09-23T07:06:03.251Z,15.15
2022-09-23T07:08:33.642Z,15.18
2022-09-23T07:11:03.592Z,15.21
2022-09-23T07:13:32.376Z,15.31
2022-09-23T07:16:01.141Z,15.38
2022-09-23T07:18:36.211Z,15.41
2022-09-23T07:21:09.115Z,15.43
2022-09-23T07:23:37.706Z,15.45
2022-09-23T07:26:04.679Z,15.42
2022-09-23T07:28:32.330Z,15.44
2022-09-23T07:31:04.314Z,15.44
2022-09-23T07:33:32.996Z,15.46
2022-09-23T07:36:04.749Z,15.54
2022-09-23T07:38:31.393Z,15.47
2022-09-23T07:41:18.775Z,15.50
2022-09-23T07:43:47.115Z,15.59
2022-09-23T07:46:17.347Z,15.57
2022-09-23T07:48:45.737Z,15.62
2022-09-23T07:51:20.972Z,15.66
2022-09-23T07:53:49.215Z,15.59
2022-09-23T07:56:16.049Z,15.57
2022-09-23T07:58:42.626Z,15.62
2022-09-23T08:01:11.242Z,15.70
2022-09-23T08:03:39.009Z,15.73
2022-09-23T08:06:08.582Z,15.82
2022-09-23T08:08:36.256Z,15.85
2022-09-23T08:11:08.485Z,15.86
2022-09-23T08:13:35.057Z,15.83
2022-09-23T08:16:02.083Z,15.91
2022-09-23T08:18:29.500Z,15.92
2022-09-23T08:20:56.203Z,16.04
2022-09-23T08:23:23.169Z,16.12
2022-09-23T08:25:59.644Z,16.12
2022-09-23T08:28:27.063Z,16.18
2022-09-23T08:30:53.786Z,16.18
2022-09-23T08:33:23.385Z,16.22
2022-09-23T08:35:51.678Z,16.28
2022-09-23T08:38:20.436Z,16.35
2022-09-23T08:40:50.021Z,16.38
2022-09-23T08:43:37.085Z,16.43
2022-09-23T08:46:10.698Z,16.48
2022-09-23T08:48:47.985Z,16.54
2022-09-23T08:51:22.267Z,16.46
2022-09-23T08:53:49.409Z,16.46
2022-09-23T08:56:22.657Z,16.52
2022-09-23T08:59:14.814Z,16.59
2022-09-23T09:01:49.454Z,16.62
2022-09-23T09:04:40.632Z,16.74
2022-09-23T09:07:31.701Z,16.65
2022-09-23T09:10:18.740Z,16.61
2022-09-23T09:12:53.994Z,16.61
2022-09-23T09:15:26.684Z,16.76
2022-09-23T09:18:19.899Z,16.89
2022-09-23T09:21:14.383Z,16.88
2022-09-23T09:24:00.155Z,16.96
2022-09-23T09:26:31.806Z,16.98
2022-09-23T09:29:17.170Z,16.93
2022-09-23T09:31:51.270Z,17.11
2022-09-23T09:34:38.141Z,17.16
2022-09-23T09:37:07.756Z,17.16
2022-09-23T09:39:35.879Z,17.23
2022-09-23T09:42:04.239Z,17.29
2022-09-23T09:44:37.117Z,17.29
2022-09-23T09:47:40.471Z,17.33
2022-09-23T09:50:13.985Z,17.40
2022-09-23T09:52:42.639Z,17.39
2022-09-23T09:55:12.229Z,17.28
2022-09-23T09:57:44.847Z,17.36
2022-09-23T10:00:26.708Z,17.38
2022-09-23T10:03:16.495Z,17.33
2022-09-23T10:05:46.189Z,17.33
2022-09-23T10:08:18.432Z,17.40
2022-09-23T10:10:54.531Z,17.35
2022-09-23T10:13:26.507Z,17.33
2022-09-23T10:15:56.829Z,17.34
2022-09-23T10:18:32.264Z,17.34
2022-09-23T10:21:08.110Z,17.40
2022-09-23T10:23:40.037Z,17.40
2022-09-23T10:26:12.070Z,17.47
2022-09-23T10:28:47.756Z,17.51
2022-09-23T10:31:22.348Z,17.58
2022-09-23T10:33:50.997Z,17.65
2022-09-23T10:36:18.553Z,17.63
2022-09-23T10:38:50.832Z,17.65
2022-09-23T10:41:55.260Z,17.69
2022-09-23T10:44:46.422Z,17.73
2022-09-23T10:47:52.026Z,17.76
2022-09-23T10:50:31.093Z,17.72
2022-09-23T10:53:25.907Z,17.75
2022-09-23T10:56:34.847Z,17.85
2022-09-23T10:59:27.157Z,17.81
2022-09-23T11:02:28.027Z,17.78
2022-09-23T11:05:01.923Z,17.73
2022-09-23T11:07:44.889Z,17.76
2022-09-23T11:10:44.846Z,17.88
2022-09-23T11:13:24.581Z,17.93
2022-09-23T11:16:17.750Z,17.84
2022-09-23T11:18:56.403Z,17.87
2022-09-23T11:21:38.767Z,17.89
2022-09-23T11:24:31.206Z,17.97
2022-09-23T11:27:20.151Z,18.00
2022-09-23T11:30:10.100Z,18.01
2022-09-23T11:32:51.208Z,18.05
2022-09-23T11:35:34.233Z,18.14
2022-09-23T11:38:07.567Z,18.13
2022-09-23T11:40:43.944Z,18.17
2022-09-23T11:43:21.701Z,18.16
2022-09-23T11:45:58.618Z,18.25
2022-09-23T11:48:32.577Z,18.30
2022-09-23T11:51:11.038Z,18.25
2022-09-23T11:53:41.780Z,18.28
2022-09-23T11:56:11.750Z,18.36
2022-09-23T11:58:51.113Z,18.33
2022-09-23T12:01:37.696Z,18.31
2022-09-23T12:04:19.784Z,18.37
2022-09-23T12:06:54.949Z,18.44
2022-09-23T12:09:57.141Z,18.42
2022-09-23T12:12:41.148Z,18.40
2022-09-23T12:15:16.859Z,18.41
2022-09-23T12:18:06.926Z,18.41
2022-09-23T12:20:36.664Z,18.45
2022-09-23T12:23:13.817Z,18.48
2022-09-23T12:25:47.522Z,18.36
2022-09-23T12:28:23.403Z,18.33
2022-09-23T12:30:52.641Z,18.34
2022-09-23T12:33:24.618Z,18.31
2022-09-23T12:35:54.147Z,18.30
2022-09-23T12:38:25.700Z,18.24
2022-09-23T12:40:55.798Z,18.18
2022-09-23T12:43:35.683Z,18.19
2022-09-23T12:46:26.096Z,18.10
2022-09-23T12:48:58.001Z,18.00
2022-09-23T12:51:26.576Z,17.92
2022-09-23T12:53:59.758Z,17.93
2022-09-23T12:56:48.059Z,17.93
2022-09-23T12:59:23.477Z,17.98
2022-09-23T13:01:50.239Z,17.98
2022-09-23T13:05:13.935Z,17.99
2022-09-23T13:07:45.354Z,17.98
2022-09-23T13:10:22.157Z,17.96
2022-09-23T13:12:49.676Z,18.04
2022-09-23T13:15:38.574Z,18.13
2022-09-23T13:18:23.095Z,18.22
2022-09-23T13:20:54.965Z,18.29
2022-09-23T13:23:31.412Z,18.39
2022-09-23T13:26:01.407Z,18.54
2022-09-23T13:28:37.109Z,18.62
2022-09-23T13:31:06.178Z,18.60
2022-09-23T13:34:02.490Z,18.57
2022-09-23T13:36:29.378Z,18.78
2022-09-23T13:39:15.245Z,18.84
2022-09-23T13:41:45.175Z,18.85
2022-09-23T13:44:20.337Z,18.90
2022-09-23T13:46:53.344Z,19.09
2022-09-23T13:49:26.738Z,19.15
2022-09-23T13:51:54.166Z,19.21
2022-09-23T13:54:49.815Z,19.27
2022-09-23T13:57:34.478Z,19.20
2022-09-23T14:00:16.336Z,19.04
2022-09-23T14:02:43.523Z,19.07
2022-09-23T14:05:12.493Z,19.09
2022-09-23T14:07:39.658Z,19.10
2022-09-23T14:10:08.174Z,19.17
2022-09-23T14:12:39.430Z,19.24
2022-09-23T14:15:07.061Z,19.41
2022-09-23T14:17:34.126Z,19.50
2022-09-23T14:20:01.050Z,19.58
2022-09-23T14:22:29.715Z,19.62
2022-09-23T14:24:57.497Z,19.59
2022-09-23T14:27:29.882Z,19.46
2022-09-23T14:29:57.829Z,19.56
2022-09-23T14:32:28.342Z,19.49
2022-09-23T14:35:01.264Z,19.39
2022-09-23T14:38:00.211Z,19.32
2022-09-23T14:40:50.829Z,19.32
2022-09-23T14:43:23.186Z,19.31
2022-09-23T14:45:56.166Z,19.27
2022-09-23T14:48:31.163Z,19.26
2022-09-23T14:51:00.063Z,19.19
2022-09-23T14:53:35.929Z,19.15
2022-09-23T14:56:11.334Z,19.20
2022-09-23T14:58:51.028Z,19.22
2022-09-23T15:01:41.450Z,19.28
2022-09-23T15:04:11.010Z,19.30
2022-09-23T15:06:40.322Z,19.30
2022-09-23T15:09:07.406Z,19.29
2022-09-23T15:11:36.022Z,19.20
2022-09-23T15:14:32.994Z,19.08
2022-09-23T15:16:53.316Z,18.97
2022-09-23T15:19:22.105Z,18.95
2022-09-23T15:21:54.290Z,18.96
2022-09-23T15:24:42.540Z,18.96
2022-09-23T15:27:19.732Z,18.96
2022-09-23T15:29:46.898Z,18.98
2022-09-23T15:32:13.511Z,19.03
2022-09-23T15:34:40.142Z,18.97
2022-09-23T15:37:11.096Z,19.14
2022-09-23T15:39:38.232Z,19.20
2022-09-23T15:42:05.995Z,19.17
2022-09-23T15:44:33.076Z,19.06
2022-09-23T15:47:01.076Z,18.95
2022-09-23T15:49:41.272Z,18.95
2022-09-23T15:52:10.635Z,18.89
2022-09-23T15:54:37.860Z,18.84
2022-09-23T15:57:04.566Z,18.82
2022-09-23T15:59:31.391Z,18.83
2022-09-23T16:02:05.762Z,18.81
2022-09-23T16:04:32.997Z,18.77
2022-09-23T16:07:00.302Z,18.68
2022-09-23T16:09:31.453Z,18.72
2022-09-23T16:11:58.042Z,18.61
2022-09-23T16:14:24.609Z,18.48
2022-09-23T16:16:51.388Z,18.41
2022-09-23T16:19:17.989Z,18.27
2022-09-23T16:21:44.740Z,18.21
2022-09-23T16:24:16.867Z,18.16
2022-09-23T16:26:45.211Z,18.18
2022-09-23T16:29:11.784Z,18.17
2022-09-23T16:31:38.775Z,18.16
2022-09-23T16:34:05.778Z,18.20
2022-09-23T16:36:34.966Z,18.12
2022-09-23T16:39:05.294Z,17.98
2022-09-23T16:41:32.586Z,17.88
2022-09-23T16:44:00.929Z,17.83
2022-09-23T16:46:29.262Z,17.72
2022-09-23T16:48:57.564Z,17.68
2022-09-23T16:51:26.739Z,17.64
2022-09-23T16:53:55.399Z,17.62
2022-09-23T16:56:28.378Z,17.60
2022-09-23T16:58:56.500Z,17.52
2022-09-23T17:01:46.725Z,17.42
2022-09-23T17:04:15.018Z,17.14
2022-09-23T17:06:52.478Z,17.12
2022-09-23T17:09:21.113Z,17.07
2022-09-23T17:12:06.159Z,17.05
2022-09-23T17:14:34.584Z,17.07
2022-09-23T17:17:01.221Z,16.98
2022-09-23T17:19:28.654Z,17.01
2022-09-23T17:21:55.194Z,17.00
2022-09-23T17:24:21.839Z,17.06
2022-09-23T17:26:52.768Z,17.12
2022-09-23T17:29:19.990Z,17.08
2022-09-23T17:31:46.613Z,17.04
2022-09-23T17:34:13.645Z,17.02
2022-09-23T17:36:40.475Z,17.07
2022-09-23T17:39:07.296Z,16.92
2022-09-23T17:41:33.921Z,16.85
2022-09-23T17:44:00.758Z,16.65
2022-09-23T17:46:28.803Z,16.53
2022-09-23T17:48:55.564Z,16.50
2022-09-23T17:51:23.035Z,16.50
2022-09-23T17:53:50.206Z,16.50
2022-09-23T17:56:29.999Z,16.44
2022-09-23T17:59:01.238Z,16.50
2022-09-23T18:01:28.287Z,16.61
2022-09-23T18:03:56.536Z,16.60
2022-09-23T18:06:25.361Z,16.50
2022-09-23T18:08:52.666Z,16.49
2022-09-23T18:11:22.163Z,16.53
2022-09-23T18:13:54.938Z,16.44
2022-09-23T18:16:24.834Z,16.43
2022-09-23T18:18:56.445Z,16.46
2022-09-23T18:21:25.369Z,16.28
2022-09-23T18:23:52.229Z,16.14
2022-09-23T18:26:21.486Z,16.15
2022-09-23T18:28:49.263Z,16.14
2022-09-23T18:31:16.275Z,16.23
2022-09-23T18:33:43.069Z,16.37
2022-09-23T18:36:10.111Z,16.32
2022-09-23T18:38:36.602Z,15.93
2022-09-23T18:41:03.349Z,16.07
2022-09-23T18:43:40.766Z,16.17
2022-09-23T18:46:13.361Z,16.21
2022-09-23T18:48:59.162Z,16.22
2022-09-23T18:51:28.939Z,15.97
2022-09-23T18:54:00.337Z,15.90
2022-09-23T18:56:41.634Z,15.95
2022-09-23T18:59:11.910Z,16.08
2022-09-23T19:01:38.777Z,16.03
2022-09-23T19:04:06.669Z,16.14
2022-09-23T19:06:34.986Z,16.23
2022-09-23T19:09:01.981Z,16.31
2022-09-23T19:11:28.638Z,16.42
2022-09-23T19:14:01.822Z,16.40
2022-09-23T19:16:31.610Z,16.42
2022-09-23T19:18:59.864Z,16.44
2022-09-23T19:21:27.367Z,16.53
2022-09-23T19:24:03.690Z,16.58
2022-09-23T19:26:33.976Z,16.55
2022-09-23T19:29:02.411Z,16.61
2022-09-23T19:31:33.170Z,16.66
2022-09-23T19:34:02.307Z,16.62
2022-09-23T19:36:31.679Z,16.70
2022-09-23T19:39:02.872Z,16.67
2022-09-23T19:41:35.361Z,16.59
2022-09-23T19:44:03.441Z,16.62
2022-09-23T19:46:33.657Z,16.64
2022-09-23T19:49:00.973Z,16.60
2022-09-23T19:51:28.236Z,16.58
2022-09-23T19:53:54.782Z,16.72
2022-09-23T19:56:21.287Z,16.69
2022-09-23T19:58:52.221Z,16.68
2022-09-23T20:01:19.167Z,16.72
2022-09-23T20:03:47.022Z,16.77
2022-09-23T20:06:15.131Z,16.78
2022-09-23T20:08:42.828Z,16.72
2022-09-23T20:11:15.853Z,16.70
2022-09-23T20:13:44.403Z,16.68
2022-09-23T20:16:14.486Z,16.60
2022-09-23T20:18:42.145Z,16.68
2022-09-23T20:21:11.903Z,16.72
2022-09-23T20:23:38.656Z,16.72
2022-09-23T20:26:24.643Z,16.66
2022-09-23T20:28:51.616Z,16.62
2022-09-23T20:31:20.787Z,16.61
2022-09-23T20:33:58.032Z,16.66
2022-09-23T20:36:26.599Z,16.69
2022-09-23T20:38:54.690Z,16.72
2022-09-23T20:41:21.506Z,16.72
2022-09-23T20:43:50.566Z,16.76
2022-09-23T20:46:17.280Z,16.74
2022-09-23T20:48:46.382Z,16.72
2022-09-23T20:51:12.979Z,16.63
2022-09-23T20:53:39.462Z,16.76
2022-09-23T20:56:06.518Z,16.70
2022-09-23T20:58:37.083Z,16.65
2022-09-23T21:01:13.367Z,16.64
2022-09-23T21:03:42.530Z,16.60
2022-09-23T21:06:10.022Z,16.65
2022-09-23T21:08:37.539Z,16.69
2022-09-23T21:11:07.941Z,16.72
2022-09-23T21:13:35.229Z,16.68
2022-09-23T21:16:03.564Z,16.69
2022-09-23T21:18:30.983Z,16.63
2022-09-23T21:20:59.242Z,16.58
2022-09-23T21:23:30.891Z,16.60
2022-09-23T21:26:19.258Z,16.61
2022-09-23T21:28:51.465Z,16.56
2022-09-23T21:31:23.817Z,16.53
2022-09-23T21:34:01.771Z,16.50
2022-09-23T21:36:30.587Z,16.57
2022-09-23T21:38:58.067Z,16.55
2022-09-23T21:41:25.204Z,16.59
2022-09-23T21:43:51.793Z,16.60
2022-09-23T21:46:20.425Z,16.53
2022-09-23T21:48:49.901Z,16.48
2022-09-23T21:51:19.125Z,16.41
2022-09-23T21:53:46.768Z,16.45
2022-09-23T21:56:19.619Z,16.48
2022-09-23T21:58:47.661Z,16.43
2022-09-23T22:01:45.076Z,16.42
2022-09-23T22:04:16.019Z,16.40
2022-09-23T22:06:43.354Z,16.43
2022-09-23T22:09:16.866Z,16.50
2022-09-23T22:12:02.331Z,16.48
2022-09-23T22:14:30.491Z,16.34
2022-09-23T22:17:01.301Z,16.42
2022-09-23T22:19:35.646Z,16.30
2022-09-23T22:22:07.675Z,16.27
2022-09-23T22:24:34.368Z,16.30
2022-09-23T22:27:00.919Z,16.35
2022-09-23T22:29:46.204Z,16.38
2022-09-23T22:32:31.332Z,16.42
2022-09-23T22:34:57.931Z,16.40
2022-09-23T22:37:32.803Z,16.38
2022-09-23T22:40:00.506Z,16.42
2022-09-23T22:42:27.648Z,16.43
2022-09-23T22:44:55.585Z,16.41
2022-09-23T22:47:22.337Z,16.42
2022-09-23T22:49:49.256Z,16.39
2022-09-23T22:52:21.165Z,16.38
2022-09-23T22:54:47.997Z,16.39
2022-09-23T22:57:15.259Z,16.34
2022-09-23T22:59:47.794Z,16.27
2022-09-23T23:02:18.696Z,16.27
2022-09-23T23:04:49.093Z,16.25
2022-09-23T23:07:22.980Z,16.09
2022-09-23T23:09:50.391Z,16.15
2022-09-23T23:12:20.230Z,16.15
2022-09-23T23:14:48.531Z,16.14
2022-09-23T23:17:15.091Z,16.20
2022-09-23T23:19:41.642Z,16.06
2022-09-23T23:22:08.175Z,16.16
2022-09-23T23:24:34.787Z,16.16
2022-09-23T23:27:01.326Z,16.25
2022-09-23T23:29:27.946Z,16.22
2022-09-23T23:31:54.698Z,16.24
2022-09-23T23:34:21.860Z,16.20
2022-09-23T23:36:54.722Z,16.28
2022-09-23T23:39:25.933Z,16.31
2022-09-23T23:41:57.667Z,16.31
2022-09-23T23:44:26.204Z,16.32
2022-09-23T23:46:54.080Z,16.31
2022-09-23T23:49:21.510Z,16.39
2022-09-23T23:51:48.099Z,16.38
2022-09-23T23:54:15.277Z,16.34
2022-09-23T23:56:41.989Z,16.38
2022-09-23T23:59:08.601Z,16.39
